sensor_id;sensor_type;location;lat;lon;timestamp;P1;durP1;ratioP1;P2;durP2;ratioP2
12072;SDS011;6098;49.004;8.372;2022-07-21T00:11:08;13.74;;;11.24;;
12072;SDS011;6098;49.004;8.372;2022-07-21T00:26:00;14.61;;;12.11;;
12072;SDS011;6098;49.004;8.372;2022-07-21T00:40:53;12.14;;;10.81;;
12072;SDS011;6098;49.004;8.372;2022-07-21T00:55:45;10.36;;;9.32;;
12072;SDS011;6098;49.004;8.372;2022-07-21T01:10:38;11.43;;;10.21;;
12072;SDS011;6098;49.004;8.372;2022-07-21T01:25:26;12.48;;;10.16;;
12072;SDS011;6098;49.004;8.372;2022-07-21T01:40:18;11.73;;;10.50;;
12072;SDS011;6098;49.004;8.372;2022-07-21T01:55:33;11.36;;;9.99;;
12072;SDS011;6098;49.004;8.372;2022-07-21T02:10:24;11.21;;;9.89;;
12072;SDS011;6098;49.004;8.372;2022-07-21T02:25:16;11.24;;;10.02;;
12072;SDS011;6098;49.004;8.372;2022-07-21T02:40:09;11.50;;;9.81;;
12072;SDS011;6098;49.004;8.372;2022-07-21T02:55:01;15.56;;;10.98;;
12072;SDS011;6098;49.004;8.372;2022-07-21T03:09:54;12.75;;;11.52;;
12072;SDS011;6098;49.004;8.372;2022-07-21T03:24:47;13.70;;;12.25;;
12072;SDS011;6098;49.004;8.372;2022-07-21T03:39:39;14.84;;;13.27;;
12072;SDS011;6098;49.004;8.372;2022-07-21T03:54:31;15.99;;;13.75;;
12072;SDS011;6098;49.004;8.372;2022-07-21T04:09:23;16.24;;;14.26;;
12072;SDS011;6098;49.004;8.372;2022-07-21T04:24:15;16.14;;;13.34;;
12072;SDS011;6098;49.004;8.372;2022-07-21T04:39:08;15.74;;;14.04;;
12072;SDS011;6098;49.004;8.372;2022-07-21T04:54:00;19.11;;;14.50;;
12072;SDS011;6098;49.004;8.372;2022-07-21T05:08:53;16.48;;;14.68;;
12072;SDS011;6098;49.004;8.372;2022-07-21T05:23:45;20.42;;;15.29;;
12072;SDS011;6098;49.004;8.372;2022-07-21T05:38:38;15.41;;;13.81;;
12072;SDS011;6098;49.004;8.372;2022-07-21T05:53:30;18.54;;;14.69;;
12072;SDS011;6098;49.004;8.372;2022-07-21T06:08:19;17.49;;;14.14;;
12072;SDS011;6098;49.004;8.372;2022-07-21T06:23:12;16.11;;;13.25;;
12072;SDS011;6098;49.004;8.372;2022-07-21T06:38:05;14.09;;;11.32;;
12072;SDS011;6098;49.004;8.372;2022-07-21T06:52:58;12.21;;;10.63;;
12072;SDS011;6098;49.004;8.372;2022-07-21T07:07:50;11.64;;;10.41;;
12072;SDS011;6098;49.004;8.372;2022-07-21T07:22:52;10.74;;;9.55;;
12072;SDS011;6098;49.004;8.372;2022-07-21T07:37:45;11.63;;;9.70;;
12072;SDS011;6098;49.004;8.372;2022-07-21T07:52:38;9.64;;;8.74;;
12072;SDS011;6098;49.004;8.372;2022-07-21T08:07:30;12.07;;;9.00;;
12072;SDS011;6098;49.004;8.372;2022-07-21T08:22:23;10.90;;;9.46;;
12072;SDS011;6098;49.004;8.372;2022-07-21T08:37:15;10.70;;;9.57;;
12072;SDS011;6098;49.004;8.372;2022-07-21T08:52:08;11.48;;;9.34;;
12072;SDS011;6098;49.004;8.372;2022-07-21T09:07:05;9.96;;;8.96;;
12072;SDS011;6098;49.004;8.372;2022-07-21T09:21:59;10.68;;;7.66;;
12072;SDS011;6098;49.004;8.372;2022-07-21T09:36:55;7.53;;;6.84;;
12072;SDS011;6098;49.004;8.372;2022-07-21T09:51:49;6.25;;;5.65;;
12072;SDS011;6098;49.004;8.372;2022-07-21T10:06:41;17.17;;;6.06;;
12072;SDS011;6098;49.004;8.372;2022-07-21T10:21:50;7.53;;;5.34;;
12072;SDS011;6098;49.004;8.372;2022-07-21T10:36:55;5.31;;;4.74;;
12072;SDS011;6098;49.004;8.372;2022-07-21T10:51:47;5.26;;;4.75;;
12072;SDS011;6098;49.004;8.372;2022-07-21T11:06:40;4.21;;;3.81;;
12072;SDS011;6098;49.004;8.372;2022-07-21T11:21:31;4.26;;;3.86;;
12072;SDS011;6098;49.004;8.372;2022-07-21T11:36:24;4.33;;;3.93;;
12072;SDS011;6098;49.004;8.372;2022-07-21T11:51:16;4.22;;;3.92;;
12072;SDS011;6098;49.004;8.372;2022-07-21T12:06:10;4.07;;;3.68;;
12072;SDS011;6098;49.004;8.372;2022-07-21T12:21:04;4.51;;;3.69;;
12072;SDS011;6098;49.004;8.372;2022-07-21T12:35:58;4.08;;;3.73;;
12072;SDS011;6098;49.004;8.372;2022-07-21T12:50:56;4.09;;;3.69;;
12072;SDS011;6098;49.004;8.372;2022-07-21T13:05:52;5.20;;;3.80;;
12072;SDS011;6098;49.004;8.372;2022-07-21T13:20:46;5.14;;;4.10;;
12072;SDS011;6098;49.004;8.372;2022-07-21T13:35:40;4.29;;;3.99;;
12072;SDS011;6098;49.004;8.372;2022-07-21T13:50:33;4.96;;;4.46;;
12072;SDS011;6098;49.004;8.372;2022-07-21T14:05:27;5.30;;;4.36;;
12072;SDS011;6098;49.004;8.372;2022-07-21T14:20:20;5.43;;;3.60;;
12072;SDS011;6098;49.004;8.372;2022-07-21T14:35:15;6.76;;;4.24;;
12072;SDS011;6098;49.004;8.372;2022-07-21T14:50:09;4.29;;;3.91;;
12072;SDS011;6098;49.004;8.372;2022-07-21T15:05:03;4.44;;;4.00;;
12072;SDS011;6098;49.004;8.372;2022-07-21T15:19:51;4.88;;;4.39;;
12072;SDS011;6098;49.004;8.372;2022-07-21T15:34:45;5.41;;;4.52;;
12072;SDS011;6098;49.004;8.372;2022-07-21T15:49:39;4.80;;;4.30;;
12072;SDS011;6098;49.004;8.372;2022-07-21T16:04:29;5.84;;;4.44;;
12072;SDS011;6098;49.004;8.372;2022-07-21T16:19:24;5.90;;;4.73;;
12072;SDS011;6098;49.004;8.372;2022-07-21T16:34:15;5.68;;;4.83;;
12072;SDS011;6098;49.004;8.372;2022-07-21T16:49:19;7.04;;;4.59;;
12072;SDS011;6098;49.004;8.372;2022-07-21T17:04:10;5.50;;;4.93;;
12072;SDS011;6098;49.004;8.372;2022-07-21T17:19:01;8.31;;;5.07;;
12072;SDS011;6098;49.004;8.372;2022-07-21T17:33:53;6.08;;;4.83;;
12072;SDS011;6098;49.004;8.372;2022-07-21T17:48:46;5.04;;;4.63;;
12072;SDS011;6098;49.004;8.372;2022-07-21T18:03:40;5.31;;;4.81;;
12072;SDS011;6098;49.004;8.372;2022-07-21T18:18:31;6.13;;;4.82;;
12072;SDS011;6098;49.004;8.372;2022-07-21T18:33:22;5.74;;;5.21;;
12072;SDS011;6098;49.004;8.372;2022-07-21T18:48:14;6.36;;;4.66;;
12072;SDS011;6098;49.004;8.372;2022-07-21T19:03:05;6.37;;;4.93;;
12072;SDS011;6098;49.004;8.372;2022-07-21T19:18:07;6.40;;;5.80;;
12072;SDS011;6098;49.004;8.372;2022-07-21T19:32:59;10.42;;;5.86;;
12072;SDS011;6098;49.004;8.372;2022-07-21T19:47:51;11.02;;;7.09;;
12072;SDS011;6098;49.004;8.372;2022-07-21T20:02:43;14.71;;;8.41;;
12072;SDS011;6098;49.004;8.372;2022-07-21T20:17:34;11.70;;;8.12;;
12072;SDS011;6098;49.004;8.372;2022-07-21T20:32:26;12.80;;;7.73;;
12072;SDS011;6098;49.004;8.372;2022-07-21T20:47:18;19.76;;;9.11;;
12072;SDS011;6098;49.004;8.372;2022-07-21T21:02:10;28.81;;;10.74;;
12072;SDS011;6098;49.004;8.372;2022-07-21T21:17:01;17.49;;;8.95;;
12072;SDS011;6098;49.004;8.372;2022-07-21T21:31:53;15.88;;;9.71;;
12072;SDS011;6098;49.004;8.372;2022-07-21T21:46:44;16.68;;;10.84;;
12072;SDS011;6098;49.004;8.372;2022-07-21T22:01:35;13.12;;;8.17;;
12072;SDS011;6098;49.004;8.372;2022-07-21T22:16:27;15.41;;;9.32;;
12072;SDS011;6098;49.004;8.372;2022-07-21T22:31:18;9.63;;;7.50;;
12072;SDS011;6098;49.004;8.372;2022-07-21T22:46:09;8.14;;;7.15;;
12072;SDS011;6098;49.004;8.372;2022-07-21T23:00:59;8.48;;;7.19;;
12072;SDS011;6098;49.004;8.372;2022-07-21T23:15:51;8.55;;;7.75;;
12072;SDS011;6098;49.004;8.372;2022-07-21T23:30:42;8.88;;;7.81;;
12072;SDS011;6098;49.004;8.372;2022-07-21T23:45:34;8.84;;;8.04;;
